sensor_id;sensor_type;location;lat;lon;timestamp;temperature;humidity
46816;DHT22;32787;53.316;8.670;2022-07-30T00:02:12;16.60;90.20
46816;DHT22;32787;53.316;8.670;2022-07-30T00:04:38;16.50;90.20
46816;DHT22;32787;53.316;8.670;2022-07-30T00:07:04;16.40;90.30
46816;DHT22;32787;53.316;8.670;2022-07-30T00:09:29;16.30;90.50
46816;DHT22;32787;53.316;8.670;2022-07-30T00:11:55;16.40;90.60
46816;DHT22;32787;53.316;8.670;2022-07-30T00:14:21;16.40;91.00
46816;DHT22;32787;53.316;8.670;2022-07-30T00:16:46;16.40;90.80
46816;DHT22;32787;53.316;8.670;2022-07-30T00:19:12;16.50;90.50
46816;DHT22;32787;53.316;8.670;2022-07-30T00:21:38;16.40;90.60
46816;DHT22;32787;53.316;8.670;2022-07-30T00:24:04;16.50;90.60
46816;DHT22;32787;53.316;8.670;2022-07-30T00:26:30;16.50;90.40
46816;DHT22;32787;53.316;8.670;2022-07-30T00:28:55;16.40;90.50
46816;DHT22;32787;53.316;8.670;2022-07-30T00:31:21;16.50;90.50
46816;DHT22;32787;53.316;8.670;2022-07-30T00:33:47;16.50;90.40
46816;DHT22;32787;53.316;8.670;2022-07-30T00:36:12;16.50;90.30
46816;DHT22;32787;53.316;8.670;2022-07-30T00:38:38;16.40;90.40
46816;DHT22;32787;53.316;8.670;2022-07-30T00:41:04;16.50;90.40
46816;DHT22;32787;53.316;8.670;2022-07-30T00:43:29;16.50;90.40
46816;DHT22;32787;53.316;8.670;2022-07-30T00:45:55;16.40;90.40
46816;DHT22;32787;53.316;8.670;2022-07-30T00:48:20;16.40;90.40
46816;DHT22;32787;53.316;8.670;2022-07-30T00:50:46;16.30;90.50
46816;DHT22;32787;53.316;8.670;2022-07-30T00:53:11;16.30;90.40
46816;DHT22;32787;53.316;8.670;2022-07-30T00:55:37;16.30;90.70
46816;DHT22;32787;53.316;8.670;2022-07-30T00:58:03;16.40;90.60
46816;DHT22;32787;53.316;8.670;2022-07-30T01:00:28;16.40;90.60
46816;DHT22;32787;53.316;8.670;2022-07-30T01:02:54;16.40;90.60
46816;DHT22;32787;53.316;8.670;2022-07-30T01:05:20;16.30;90.80
46816;DHT22;32787;53.316;8.670;2022-07-30T01:07:45;16.40;90.90
46816;DHT22;32787;53.316;8.670;2022-07-30T01:10:14;16.30;90.80
46816;DHT22;32787;53.316;8.670;2022-07-30T01:12:41;16.30;90.80
46816;DHT22;32787;53.316;8.670;2022-07-30T01:15:08;16.30;90.80
46816;DHT22;32787;53.316;8.670;2022-07-30T01:17:35;16.30;90.80
46816;DHT22;32787;53.316;8.670;2022-07-30T01:20:06;16.20;90.80
46816;DHT22;32787;53.316;8.670;2022-07-30T01:27:59;16.10;91.00
46816;DHT22;32787;53.316;8.670;2022-07-30T01:30:30;16.00;91.00
46816;DHT22;32787;53.316;8.670;2022-07-30T01:32:57;16.10;91.00
46816;DHT22;32787;53.316;8.670;2022-07-30T01:35:27;16.00;91.00
46816;DHT22;32787;53.316;8.670;2022-07-30T01:37:54;16.00;91.20
46816;DHT22;32787;53.316;8.670;2022-07-30T01:40:22;16.10;91.40
46816;DHT22;32787;53.316;8.670;2022-07-30T01:42:51;16.10;91.10
46816;DHT22;32787;53.316;8.670;2022-07-30T01:45:22;16.00;91.10
46816;DHT22;32787;53.316;8.670;2022-07-30T01:47:50;16.00;90.60
46816;DHT22;32787;53.316;8.670;2022-07-30T01:50:17;15.90;90.70
46816;DHT22;32787;53.316;8.670;2022-07-30T01:52:45;15.90;90.90
46816;DHT22;32787;53.316;8.670;2022-07-30T01:55:15;15.90;90.70
46816;DHT22;32787;53.316;8.670;2022-07-30T01:57:44;15.90;90.70
46816;DHT22;32787;53.316;8.670;2022-07-30T02:00:11;15.80;90.60
46816;DHT22;32787;53.316;8.670;2022-07-30T02:02:37;15.70;90.80
46816;DHT22;32787;53.316;8.670;2022-07-30T02:05:05;15.60;91.00
46816;DHT22;32787;53.316;8.670;2022-07-30T02:07:37;15.60;91.20
46816;DHT22;32787;53.316;8.670;2022-07-30T02:10:10;15.70;90.90
46816;DHT22;32787;53.316;8.670;2022-07-30T02:12:41;15.70;90.60
46816;DHT22;32787;53.316;8.670;2022-07-30T02:15:11;15.60;90.80
46816;DHT22;32787;53.316;8.670;2022-07-30T02:18:01;15.50;90.80
46816;DHT22;32787;53.316;8.670;2022-07-30T02:20:29;15.60;90.90
46816;DHT22;32787;53.316;8.670;2022-07-30T02:23:04;15.60;91.00
46816;DHT22;32787;53.316;8.670;2022-07-30T02:25:33;15.60;91.10
46816;DHT22;32787;53.316;8.670;2022-07-30T02:28:03;15.60;91.10
46816;DHT22;32787;53.316;8.670;2022-07-30T02:30:32;15.70;91.00
46816;DHT22;32787;53.316;8.670;2022-07-30T02:33:02;15.80;90.90
46816;DHT22;32787;53.316;8.670;2022-07-30T02:35:29;15.70;90.60
46816;DHT22;32787;53.316;8.670;2022-07-30T02:37:57;15.60;90.90
46816;DHT22;32787;53.316;8.670;2022-07-30T02:40:24;15.50;90.90
46816;DHT22;32787;53.316;8.670;2022-07-30T02:42:52;15.60;91.30
46816;DHT22;32787;53.316;8.670;2022-07-30T02:45:18;15.60;91.00
46816;DHT22;32787;53.316;8.670;2022-07-30T02:47:46;15.70;90.90
46816;DHT22;32787;53.316;8.670;2022-07-30T02:50:13;15.70;90.70
46816;DHT22;32787;53.316;8.670;2022-07-30T02:52:40;15.70;91.00
46816;DHT22;32787;53.316;8.670;2022-07-30T02:55:08;15.60;90.60
46816;DHT22;32787;53.316;8.670;2022-07-30T02:57:36;15.60;90.30
46816;DHT22;32787;53.316;8.670;2022-07-30T03:00:04;15.60;90.60
46816;DHT22;32787;53.316;8.670;2022-07-30T03:02:32;15.50;90.50
46816;DHT22;32787;53.316;8.670;2022-07-30T03:05:00;15.50;90.50
46816;DHT22;32787;53.316;8.670;2022-07-30T03:07:27;15.30;90.60
46816;DHT22;32787;53.316;8.670;2022-07-30T03:09:55;15.20;91.10
46816;DHT22;32787;53.316;8.670;2022-07-30T03:12:21;15.20;91.20
46816;DHT22;32787;53.316;8.670;2022-07-30T03:14:48;15.00;91.30
46816;DHT22;32787;53.316;8.670;2022-07-30T03:17:16;15.10;91.50
46816;DHT22;32787;53.316;8.670;2022-07-30T03:19:44;15.20;91.60
46816;DHT22;32787;53.316;8.670;2022-07-30T03:22:11;15.00;91.40
46816;DHT22;32787;53.316;8.670;2022-07-30T03:24:40;14.90;91.50
46816;DHT22;32787;53.316;8.670;2022-07-30T03:27:08;15.00;91.50
46816;DHT22;32787;53.316;8.670;2022-07-30T03:29:36;15.00;91.60
46816;DHT22;32787;53.316;8.670;2022-07-30T03:32:03;15.00;91.80
46816;DHT22;32787;53.316;8.670;2022-07-30T03:34:32;15.00;91.60
46816;DHT22;32787;53.316;8.670;2022-07-30T03:36:59;15.20;91.60
46816;DHT22;32787;53.316;8.670;2022-07-30T03:39:25;15.20;91.50
46816;DHT22;32787;53.316;8.670;2022-07-30T03:41:53;15.20;91.30
46816;DHT22;32787;53.316;8.670;2022-07-30T03:44:20;15.20;91.40
46816;DHT22;32787;53.316;8.670;2022-07-30T03:46:47;15.20;91.30
46816;DHT22;32787;53.316;8.670;2022-07-30T03:49:15;15.30;91.20
46816;DHT22;32787;53.316;8.670;2022-07-30T03:51:42;15.20;91.10
46816;DHT22;32787;53.316;8.670;2022-07-30T03:54:09;15.20;91.20
46816;DHT22;32787;53.316;8.670;2022-07-30T03:56:36;15.30;91.30
46816;DHT22;32787;53.316;8.670;2022-07-30T03:59:03;15.30;91.40
46816;DHT22;32787;53.316;8.670;2022-07-30T04:01:29;15.30;91.30
46816;DHT22;32787;53.316;8.670;2022-07-30T04:04:06;15.40;91.20
46816;DHT22;32787;53.316;8.670;2022-07-30T04:06:32;15.30;90.90
46816;DHT22;32787;53.316;8.670;2022-07-30T04:09:04;15.30;90.90
46816;DHT22;32787;53.316;8.670;2022-07-30T04:11:30;15.10;91.00
46816;DHT22;32787;53.316;8.670;2022-07-30T04:13:56;15.10;91.10
46816;DHT22;32787;53.316;8.670;2022-07-30T04:16:36;15.10;91.20
46816;DHT22;32787;53.316;8.670;2022-07-30T04:19:02;15.20;91.50
46816;DHT22;32787;53.316;8.670;2022-07-30T04:21:31;15.10;91.40
46816;DHT22;32787;53.316;8.670;2022-07-30T04:23:58;15.00;91.40
46816;DHT22;32787;53.316;8.670;2022-07-30T04:26:28;14.90;91.40
46816;DHT22;32787;53.316;8.670;2022-07-30T04:28:56;14.80;91.50
46816;DHT22;32787;53.316;8.670;2022-07-30T04:31:22;14.80;91.60
46816;DHT22;32787;53.316;8.670;2022-07-30T04:33:48;14.60;91.90
46816;DHT22;32787;53.316;8.670;2022-07-30T04:36:14;14.60;92.30
46816;DHT22;32787;53.316;8.670;2022-07-30T04:38:39;14.50;92.40
46816;DHT22;32787;53.316;8.670;2022-07-30T04:41:05;14.50;92.40
46816;DHT22;32787;53.316;8.670;2022-07-30T04:43:31;14.50;92.30
46816;DHT22;32787;53.316;8.670;2022-07-30T04:45:56;14.40;92.40
46816;DHT22;32787;53.316;8.670;2022-07-30T04:48:22;14.40;92.60
46816;DHT22;32787;53.316;8.670;2022-07-30T04:50:53;14.40;92.60
46816;DHT22;32787;53.316;8.670;2022-07-30T04:53:19;14.50;92.60
46816;DHT22;32787;53.316;8.670;2022-07-30T04:55:47;14.40;92.70
46816;DHT22;32787;53.316;8.670;2022-07-30T04:58:15;14.60;92.90
46816;DHT22;32787;53.316;8.670;2022-07-30T05:00:41;14.70;93.00
46816;DHT22;32787;53.316;8.670;2022-07-30T05:03:11;14.70;92.80
46816;DHT22;32787;53.316;8.670;2022-07-30T05:05:37;14.80;92.70
46816;DHT22;32787;53.316;8.670;2022-07-30T05:08:04;14.60;92.70
46816;DHT22;32787;53.316;8.670;2022-07-30T05:10:30;14.60;92.70
46816;DHT22;32787;53.316;8.670;2022-07-30T05:12:56;14.60;92.70
46816;DHT22;32787;53.316;8.670;2022-07-30T05:15:22;14.60;92.80
46816;DHT22;32787;53.316;8.670;2022-07-30T05:17:48;14.60;92.80
46816;DHT22;32787;53.316;8.670;2022-07-30T05:20:14;14.50;92.80
46816;DHT22;32787;53.316;8.670;2022-07-30T05:22:40;14.50;92.80
46816;DHT22;32787;53.316;8.670;2022-07-30T05:25:06;14.60;93.00
46816;DHT22;32787;53.316;8.670;2022-07-30T05:27:32;14.50;93.10
46816;DHT22;32787;53.316;8.670;2022-07-30T05:29:57;14.60;93.20
46816;DHT22;32787;53.316;8.670;2022-07-30T05:32:23;14.70;93.40
46816;DHT22;32787;53.316;8.670;2022-07-30T05:34:48;14.80;93.50
46816;DHT22;32787;53.316;8.670;2022-07-30T05:37:14;14.90;93.60
46816;DHT22;32787;53.316;8.670;2022-07-30T05:39:40;15.20;93.70
46816;DHT22;32787;53.316;8.670;2022-07-30T05:42:05;15.40;93.60
46816;DHT22;32787;53.316;8.670;2022-07-30T05:44:31;15.60;93.50
46816;DHT22;32787;53.316;8.670;2022-07-30T05:46:56;15.70;93.50
46816;DHT22;32787;53.316;8.670;2022-07-30T05:49:22;15.80;93.40
46816;DHT22;32787;53.316;8.670;2022-07-30T05:51:48;16.00;93.30
46816;DHT22;32787;53.316;8.670;2022-07-30T05:54:13;16.20;93.20
46816;DHT22;32787;53.316;8.670;2022-07-30T05:56:39;16.30;93.00
46816;DHT22;32787;53.316;8.670;2022-07-30T05:59:05;16.30;92.80
46816;DHT22;32787;53.316;8.670;2022-07-30T06:01:31;16.40;92.70
46816;DHT22;32787;53.316;8.670;2022-07-30T06:03:57;16.50;92.80
46816;DHT22;32787;53.316;8.670;2022-07-30T06:06:22;16.70;92.30
46816;DHT22;32787;53.316;8.670;2022-07-30T06:08:48;16.80;92.00
46816;DHT22;32787;53.316;8.670;2022-07-30T06:11:14;17.00;91.80
46816;DHT22;32787;53.316;8.670;2022-07-30T06:13:40;17.10;91.80
46816;DHT22;32787;53.316;8.670;2022-07-30T06:16:06;17.30;91.70
46816;DHT22;32787;53.316;8.670;2022-07-30T06:18:31;17.40;90.80
46816;DHT22;32787;53.316;8.670;2022-07-30T06:20:57;17.60;90.50
46816;DHT22;32787;53.316;8.670;2022-07-30T06:23:23;17.60;89.40
46816;DHT22;32787;53.316;8.670;2022-07-30T06:25:49;17.60;89.80
46816;DHT22;32787;53.316;8.670;2022-07-30T06:28:16;17.60;90.10
46816;DHT22;32787;53.316;8.670;2022-07-30T06:30:42;17.80;89.70
46816;DHT22;32787;53.316;8.670;2022-07-30T06:33:11;17.80;89.60
46816;DHT22;32787;53.316;8.670;2022-07-30T06:35:37;17.80;89.70
46816;DHT22;32787;53.316;8.670;2022-07-30T06:38:02;17.90;89.40
46816;DHT22;32787;53.316;8.670;2022-07-30T06:40:28;18.00;89.10
46816;DHT22;32787;53.316;8.670;2022-07-30T06:42:54;18.00;89.30
46816;DHT22;32787;53.316;8.670;2022-07-30T06:45:19;17.90;88.70
46816;DHT22;32787;53.316;8.670;2022-07-30T06:47:45;17.80;88.90
46816;DHT22;32787;53.316;8.670;2022-07-30T06:50:11;17.90;89.30
46816;DHT22;32787;53.316;8.670;2022-07-30T06:52:37;18.00;89.30
46816;DHT22;32787;53.316;8.670;2022-07-30T06:55:03;17.90;88.80
46816;DHT22;32787;53.316;8.670;2022-07-30T06:57:29;17.80;88.80
46816;DHT22;32787;53.316;8.670;2022-07-30T06:59:54;17.90;88.70
46816;DHT22;32787;53.316;8.670;2022-07-30T07:02:20;17.90;88.80
46816;DHT22;32787;53.316;8.670;2022-07-30T07:04:46;17.90;88.90
46816;DHT22;32787;53.316;8.670;2022-07-30T07:07:11;18.10;88.50
46816;DHT22;32787;53.316;8.670;2022-07-30T07:09:37;18.10;88.50
46816;DHT22;32787;53.316;8.670;2022-07-30T07:12:02;18.10;88.80
46816;DHT22;32787;53.316;8.670;2022-07-30T07:14:28;18.30;88.90
46816;DHT22;32787;53.316;8.670;2022-07-30T07:16:54;18.30;88.60
46816;DHT22;32787;53.316;8.670;2022-07-30T07:19:20;18.30;88.50
46816;DHT22;32787;53.316;8.670;2022-07-30T07:21:45;18.30;88.10
46816;DHT22;32787;53.316;8.670;2022-07-30T07:24:11;18.40;87.90
46816;DHT22;32787;53.316;8.670;2022-07-30T07:26:36;18.30;87.20
46816;DHT22;32787;53.316;8.670;2022-07-30T07:29:02;18.30;87.60
46816;DHT22;32787;53.316;8.670;2022-07-30T07:31:28;18.30;88.00
46816;DHT22;32787;53.316;8.670;2022-07-30T07:33:53;18.30;88.10
46816;DHT22;32787;53.316;8.670;2022-07-30T07:36:20;18.30;88.20
46816;DHT22;32787;53.316;8.670;2022-07-30T07:38:46;18.30;88.60
46816;DHT22;32787;53.316;8.670;2022-07-30T07:41:11;18.20;88.80
46816;DHT22;32787;53.316;8.670;2022-07-30T07:43:37;18.10;89.30
46816;DHT22;32787;53.316;8.670;2022-07-30T07:46:05;18.00;88.90
46816;DHT22;32787;53.316;8.670;2022-07-30T07:48:31;18.00;88.90
46816;DHT22;32787;53.316;8.670;2022-07-30T07:50:57;18.00;89.00
46816;DHT22;32787;53.316;8.670;2022-07-30T07:53:22;17.90;88.50
46816;DHT22;32787;53.316;8.670;2022-07-30T07:55:48;17.90;88.70
46816;DHT22;32787;53.316;8.670;2022-07-30T07:58:14;18.00;88.80
46816;DHT22;32787;53.316;8.670;2022-07-30T08:00:39;18.20;89.00
46816;DHT22;32787;53.316;8.670;2022-07-30T08:03:05;18.20;88.20
46816;DHT22;32787;53.316;8.670;2022-07-30T08:05:31;18.10;88.30
46816;DHT22;32787;53.316;8.670;2022-07-30T08:07:57;18.20;88.40
46816;DHT22;32787;53.316;8.670;2022-07-30T08:10:23;18.30;87.80
46816;DHT22;32787;53.316;8.670;2022-07-30T08:12:49;18.40;87.00
46816;DHT22;32787;53.316;8.670;2022-07-30T08:15:15;18.40;87.00
46816;DHT22;32787;53.316;8.670;2022-07-30T08:17:45;18.40;87.20
46816;DHT22;32787;53.316;8.670;2022-07-30T08:20:12;18.50;87.00
46816;DHT22;32787;53.316;8.670;2022-07-30T08:22:38;18.50;87.80
46816;DHT22;32787;53.316;8.670;2022-07-30T08:25:04;18.50;87.40
46816;DHT22;32787;53.316;8.670;2022-07-30T08:27:30;18.50;87.50
46816;DHT22;32787;53.316;8.670;2022-07-30T08:29:56;18.80;86.70
46816;DHT22;32787;53.316;8.670;2022-07-30T08:32:22;19.10;86.90
46816;DHT22;32787;53.316;8.670;2022-07-30T08:34:48;19.00;86.30
46816;DHT22;32787;53.316;8.670;2022-07-30T08:37:14;19.00;86.30
46816;DHT22;32787;53.316;8.670;2022-07-30T08:39:40;19.10;86.50
46816;DHT22;32787;53.316;8.670;2022-07-30T08:42:06;19.20;85.70
46816;DHT22;32787;53.316;8.670;2022-07-30T08:44:32;19.20;85.60
46816;DHT22;32787;53.316;8.670;2022-07-30T08:47:00;19.30;85.90
46816;DHT22;32787;53.316;8.670;2022-07-30T08:49:26;19.50;85.40
46816;DHT22;32787;53.316;8.670;2022-07-30T08:51:52;19.70;85.30
46816;DHT22;32787;53.316;8.670;2022-07-30T08:54:18;19.50;84.80
46816;DHT22;32787;53.316;8.670;2022-07-30T08:56:44;19.50;85.50
46816;DHT22;32787;53.316;8.670;2022-07-30T08:59:10;19.70;85.70
46816;DHT22;32787;53.316;8.670;2022-07-30T09:01:36;19.80;83.80
46816;DHT22;32787;53.316;8.670;2022-07-30T09:04:02;19.80;84.20
46816;DHT22;32787;53.316;8.670;2022-07-30T09:06:28;20.00;83.20
46816;DHT22;32787;53.316;8.670;2022-07-30T09:08:54;20.10;82.90
46816;DHT22;32787;53.316;8.670;2022-07-30T09:11:19;20.20;82.40
46816;DHT22;32787;53.316;8.670;2022-07-30T09:13:45;20.20;82.20
46816;DHT22;32787;53.316;8.670;2022-07-30T09:16:22;20.20;82.20
46816;DHT22;32787;53.316;8.670;2022-07-30T09:18:49;20.20;81.40
46816;DHT22;32787;53.316;8.670;2022-07-30T09:21:20;20.40;81.70
46816;DHT22;32787;53.316;8.670;2022-07-30T09:26:26;20.40;82.30
46816;DHT22;32787;53.316;8.670;2022-07-30T09:28:52;20.50;81.10
46816;DHT22;32787;53.316;8.670;2022-07-30T09:31:19;20.50;79.60
46816;DHT22;32787;53.316;8.670;2022-07-30T09:33:45;20.60;78.30
46816;DHT22;32787;53.316;8.670;2022-07-30T09:36:16;20.70;78.50
46816;DHT22;32787;53.316;8.670;2022-07-30T09:38:43;20.70;79.70
46816;DHT22;32787;53.316;8.670;2022-07-30T09:41:10;20.90;78.60
46816;DHT22;32787;53.316;8.670;2022-07-30T09:43:49;21.00;78.20
46816;DHT22;32787;53.316;8.670;2022-07-30T09:46:15;21.10;78.20
46816;DHT22;32787;53.316;8.670;2022-07-30T09:48:42;21.20;77.60
46816;DHT22;32787;53.316;8.670;2022-07-30T09:51:08;21.30;78.30
46816;DHT22;32787;53.316;8.670;2022-07-30T09:53:35;21.50;78.60
46816;DHT22;32787;53.316;8.670;2022-07-30T09:56:27;21.60;78.10
46816;DHT22;32787;53.316;8.670;2022-07-30T09:58:53;21.80;76.80
46816;DHT22;32787;53.316;8.670;2022-07-30T10:01:20;21.70;76.40
46816;DHT22;32787;53.316;8.670;2022-07-30T10:03:45;21.80;76.40
46816;DHT22;32787;53.316;8.670;2022-07-30T10:06:11;21.60;74.90
46816;DHT22;32787;53.316;8.670;2022-07-30T10:08:45;21.80;77.00
46816;DHT22;32787;53.316;8.670;2022-07-30T10:11:14;21.70;75.70
46816;DHT22;32787;53.316;8.670;2022-07-30T10:13:41;22.00;74.20
46816;DHT22;32787;53.316;8.670;2022-07-30T10:16:08;22.00;73.60
46816;DHT22;32787;53.316;8.670;2022-07-30T10:18:34;21.90;76.10
46816;DHT22;32787;53.316;8.670;2022-07-30T10:21:01;22.00;73.40
46816;DHT22;32787;53.316;8.670;2022-07-30T10:23:28;22.30;75.10
46816;DHT22;32787;53.316;8.670;2022-07-30T10:25:55;22.60;72.20
46816;DHT22;32787;53.316;8.670;2022-07-30T10:28:25;22.30;72.80
46816;DHT22;32787;53.316;8.670;2022-07-30T10:30:51;22.40;72.80
46816;DHT22;32787;53.316;8.670;2022-07-30T10:33:18;22.70;72.30
46816;DHT22;32787;53.316;8.670;2022-07-30T10:35:45;22.60;70.30
46816;DHT22;32787;53.316;8.670;2022-07-30T10:38:12;22.70;69.50
46816;DHT22;32787;53.316;8.670;2022-07-30T10:41:07;22.50;70.00
46816;DHT22;32787;53.316;8.670;2022-07-30T10:43:45;22.70;69.80
46816;DHT22;32787;53.316;8.670;2022-07-30T10:46:27;22.80;66.50
46816;DHT22;32787;53.316;8.670;2022-07-30T10:49:14;22.80;67.30
46816;DHT22;32787;53.316;8.670;2022-07-30T10:51:49;23.20;68.40
46816;DHT22;32787;53.316;8.670;2022-07-30T10:54:39;23.20;67.40
46816;DHT22;32787;53.316;8.670;2022-07-30T10:57:07;23.00;67.30
46816;DHT22;32787;53.316;8.670;2022-07-30T11:02:25;22.70;71.20
46816;DHT22;32787;53.316;8.670;2022-07-30T11:07:43;22.80;69.00
46816;DHT22;32787;53.316;8.670;2022-07-30T11:10:38;23.00;69.10
46816;DHT22;32787;53.316;8.670;2022-07-30T11:13:06;23.20;67.30
46816;DHT22;32787;53.316;8.670;2022-07-30T11:15:51;23.20;65.80
46816;DHT22;32787;53.316;8.670;2022-07-30T11:18:19;23.40;65.50
46816;DHT22;32787;53.316;8.670;2022-07-30T11:21:15;23.80;66.90
46816;DHT22;32787;53.316;8.670;2022-07-30T11:23:42;24.10;63.40
46816;DHT22;32787;53.316;8.670;2022-07-30T11:26:10;24.00;65.50
46816;DHT22;32787;53.316;8.670;2022-07-30T11:28:44;23.90;66.10
46816;DHT22;32787;53.316;8.670;2022-07-30T11:31:28;23.80;64.30
46816;DHT22;32787;53.316;8.670;2022-07-30T11:42:35;24.20;62.10
46816;DHT22;32787;53.316;8.670;2022-07-30T11:47:50;24.30;60.70
46816;DHT22;32787;53.316;8.670;2022-07-30T11:50:43;24.80;63.90
46816;DHT22;32787;53.316;8.670;2022-07-30T11:53:18;25.30;57.90
46816;DHT22;32787;53.316;8.670;2022-07-30T11:55:49;25.30;59.00
46816;DHT22;32787;53.316;8.670;2022-07-30T11:58:36;25.40;59.30
46816;DHT22;32787;53.316;8.670;2022-07-30T12:01:11;25.50;54.30
46816;DHT22;32787;53.316;8.670;2022-07-30T12:03:42;25.20;57.70
46816;DHT22;32787;53.316;8.670;2022-07-30T12:06:14;25.50;58.80
46816;DHT22;32787;53.316;8.670;2022-07-30T12:08:49;25.70;56.90
46816;DHT22;32787;53.316;8.670;2022-07-30T12:11:15;25.70;55.00
46816;DHT22;32787;53.316;8.670;2022-07-30T12:13:42;25.80;56.20
46816;DHT22;32787;53.316;8.670;2022-07-30T12:16:13;25.60;55.40
46816;DHT22;32787;53.316;8.670;2022-07-30T12:18:40;25.80;54.40
46816;DHT22;32787;53.316;8.670;2022-07-30T12:21:07;25.70;57.00
46816;DHT22;32787;53.316;8.670;2022-07-30T12:23:34;25.70;55.70
46816;DHT22;32787;53.316;8.670;2022-07-30T12:26:00;25.70;57.10
46816;DHT22;32787;53.316;8.670;2022-07-30T12:28:30;25.30;54.30
46816;DHT22;32787;53.316;8.670;2022-07-30T12:30:58;25.70;54.00
46816;DHT22;32787;53.316;8.670;2022-07-30T12:33:25;26.20;55.50
46816;DHT22;32787;53.316;8.670;2022-07-30T12:35:55;26.50;52.70
46816;DHT22;32787;53.316;8.670;2022-07-30T12:38:22;26.50;51.20
46816;DHT22;32787;53.316;8.670;2022-07-30T12:41:03;26.30;55.80
46816;DHT22;32787;53.316;8.670;2022-07-30T12:46:18;28.20;51.80
46816;DHT22;32787;53.316;8.670;2022-07-30T12:48:58;29.00;50.90
46816;DHT22;32787;53.316;8.670;2022-07-30T12:51:32;28.50;48.80
46816;DHT22;32787;53.316;8.670;2022-07-30T12:54:00;27.60;49.60
46816;DHT22;32787;53.316;8.670;2022-07-30T12:56:28;26.20;53.50
46816;DHT22;32787;53.316;8.670;2022-07-30T12:58:56;25.60;56.60
46816;DHT22;32787;53.316;8.670;2022-07-30T13:01:41;25.30;55.40
46816;DHT22;32787;53.316;8.670;2022-07-30T13:04:08;24.90;56.90
46816;DHT22;32787;53.316;8.670;2022-07-30T13:06:34;24.70;58.10
46816;DHT22;32787;53.316;8.670;2022-07-30T13:09:00;24.70;58.20
46816;DHT22;32787;53.316;8.670;2022-07-30T13:11:40;24.70;60.00
46816;DHT22;32787;53.316;8.670;2022-07-30T13:14:07;24.50;60.40
46816;DHT22;32787;53.316;8.670;2022-07-30T13:16:35;24.50;59.10
46816;DHT22;32787;53.316;8.670;2022-07-30T13:19:08;24.50;60.60
46816;DHT22;32787;53.316;8.670;2022-07-30T13:21:36;24.70;61.70
46816;DHT22;32787;53.316;8.670;2022-07-30T13:24:02;24.40;58.70
46816;DHT22;32787;53.316;8.670;2022-07-30T13:26:28;24.30;61.20
46816;DHT22;32787;53.316;8.670;2022-07-30T13:28:57;24.70;63.00
46816;DHT22;32787;53.316;8.670;2022-07-30T13:31:24;25.00;58.20
46816;DHT22;32787;53.316;8.670;2022-07-30T13:33:50;25.40;58.40
46816;DHT22;32787;53.316;8.670;2022-07-30T13:36:16;25.30;59.00
46816;DHT22;32787;53.316;8.670;2022-07-30T13:38:42;25.70;57.30
46816;DHT22;32787;53.316;8.670;2022-07-30T13:41:08;26.20;53.30
46816;DHT22;32787;53.316;8.670;2022-07-30T13:43:34;27.10;51.30
46816;DHT22;32787;53.316;8.670;2022-07-30T13:46:01;28.30;48.60
46816;DHT22;32787;53.316;8.670;2022-07-30T13:48:30;28.50;48.60
46816;DHT22;32787;53.316;8.670;2022-07-30T13:50:55;28.60;45.50
46816;DHT22;32787;53.316;8.670;2022-07-30T13:53:21;28.40;49.00
46816;DHT22;32787;53.316;8.670;2022-07-30T13:55:47;28.70;46.20
46816;DHT22;32787;53.316;8.670;2022-07-30T13:58:13;28.50;47.40
46816;DHT22;32787;53.316;8.670;2022-07-30T14:00:39;29.60;47.40
46816;DHT22;32787;53.316;8.670;2022-07-30T14:03:07;30.00;42.60
46816;DHT22;32787;53.316;8.670;2022-07-30T14:05:34;30.10;44.40
46816;DHT22;32787;53.316;8.670;2022-07-30T14:08:01;29.60;43.70
46816;DHT22;32787;53.316;8.670;2022-07-30T14:10:28;28.30;45.10
46816;DHT22;32787;53.316;8.670;2022-07-30T14:12:54;27.40;48.50
46816;DHT22;32787;53.316;8.670;2022-07-30T14:15:24;27.90;49.30
46816;DHT22;32787;53.316;8.670;2022-07-30T14:17:51;28.40;45.70
46816;DHT22;32787;53.316;8.670;2022-07-30T14:20:17;28.40;44.50
46816;DHT22;32787;53.316;8.670;2022-07-30T14:22:44;27.60;47.40
46816;DHT22;32787;53.316;8.670;2022-07-30T14:25:10;27.10;47.80
46816;DHT22;32787;53.316;8.670;2022-07-30T14:27:36;27.10;47.40
46816;DHT22;32787;53.316;8.670;2022-07-30T14:30:04;27.80;48.10
46816;DHT22;32787;53.316;8.670;2022-07-30T14:32:30;27.60;47.00
46816;DHT22;32787;53.316;8.670;2022-07-30T14:34:55;27.70;47.30
46816;DHT22;32787;53.316;8.670;2022-07-30T14:37:21;26.90;48.90
46816;DHT22;32787;53.316;8.670;2022-07-30T14:39:47;26.00;52.30
46816;DHT22;32787;53.316;8.670;2022-07-30T14:42:12;25.90;52.80
46816;DHT22;32787;53.316;8.670;2022-07-30T14:44:38;26.90;50.10
46816;DHT22;32787;53.316;8.670;2022-07-30T14:47:04;28.00;47.80
46816;DHT22;32787;53.316;8.670;2022-07-30T14:49:29;29.60;44.00
46816;DHT22;32787;53.316;8.670;2022-07-30T14:51:55;30.70;42.60
46816;DHT22;32787;53.316;8.670;2022-07-30T14:54:21;31.70;41.50
46816;DHT22;32787;53.316;8.670;2022-07-30T14:56:47;31.90;39.60
46816;DHT22;32787;53.316;8.670;2022-07-30T14:59:12;31.80;39.80
46816;DHT22;32787;53.316;8.670;2022-07-30T15:01:38;32.30;42.30
46816;DHT22;32787;53.316;8.670;2022-07-30T15:04:06;32.00;39.50
46816;DHT22;32787;53.316;8.670;2022-07-30T15:06:34;32.60;39.20
46816;DHT22;32787;53.316;8.670;2022-07-30T15:09:00;32.40;37.00
46816;DHT22;32787;53.316;8.670;2022-07-30T15:11:25;32.40;40.80
46816;DHT22;32787;53.316;8.670;2022-07-30T15:13:51;33.30;36.50
46816;DHT22;32787;53.316;8.670;2022-07-30T15:16:17;32.90;35.60
46816;DHT22;32787;53.316;8.670;2022-07-30T15:18:43;32.70;36.30
46816;DHT22;32787;53.316;8.670;2022-07-30T15:21:09;32.20;37.30
46816;DHT22;32787;53.316;8.670;2022-07-30T15:23:37;32.00;39.40
46816;DHT22;32787;53.316;8.670;2022-07-30T15:26:03;32.40;35.90
46816;DHT22;32787;53.316;8.670;2022-07-30T15:28:29;32.00;37.80
46816;DHT22;32787;53.316;8.670;2022-07-30T15:30:54;32.30;38.70
46816;DHT22;32787;53.316;8.670;2022-07-30T15:33:21;32.70;36.90
46816;DHT22;32787;53.316;8.670;2022-07-30T15:35:46;32.80;38.00
46816;DHT22;32787;53.316;8.670;2022-07-30T15:38:12;33.20;36.30
46816;DHT22;32787;53.316;8.670;2022-07-30T15:40:38;33.20;36.20
46816;DHT22;32787;53.316;8.670;2022-07-30T15:43:03;32.50;37.80
46816;DHT22;32787;53.316;8.670;2022-07-30T15:45:29;31.80;37.70
46816;DHT22;32787;53.316;8.670;2022-07-30T15:47:55;31.00;38.70
46816;DHT22;32787;53.316;8.670;2022-07-30T15:50:21;31.20;39.20
46816;DHT22;32787;53.316;8.670;2022-07-30T15:52:47;30.40;40.60
46816;DHT22;32787;53.316;8.670;2022-07-30T15:55:13;29.20;43.10
46816;DHT22;32787;53.316;8.670;2022-07-30T15:57:39;28.70;43.90
46816;DHT22;32787;53.316;8.670;2022-07-30T16:00:05;28.50;45.20
46816;DHT22;32787;53.316;8.670;2022-07-30T16:02:33;28.70;44.90